createdAt,value
2023-04-23T00:03:37.456Z,9.13
2023-04-23T00:08:40.949Z,8.13
2023-04-23T00:13:42.629Z,8.32
2023-04-23T00:18:43.952Z,5.85
2023-04-23T00:23:45.313Z,5.35
2023-04-23T00:28:46.697Z,6.97
2023-04-23T00:33:48.251Z,10.07
2023-04-23T00:38:49.622Z,7.00
2023-04-23T00:43:53.096Z,8.32
2023-04-23T00:48:54.891Z,10.50
2023-04-23T00:53:56.312Z,8.75
2023-04-23T00:58:57.732Z,10.55
2023-04-23T01:03:59.855Z,8.77
2023-04-23T01:09:01.539Z,7.50
2023-04-23T01:14:03.263Z,11.93
2023-04-23T01:19:07.664Z,8.25
2023-04-23T01:24:10.089Z,12.32
2023-04-23T01:29:11.888Z,9.18
2023-04-23T01:34:13.882Z,11.68
2023-04-23T01:39:15.675Z,13.20
2023-04-23T01:44:17.059Z,11.20
2023-04-23T01:49:18.534Z,12.10
2023-04-23T01:54:19.934Z,16.90
2023-04-23T01:59:22.745Z,11.82
2023-04-23T02:04:24.420Z,14.35
2023-04-23T02:09:25.962Z,15.57
2023-04-23T02:14:27.939Z,16.42
2023-04-23T02:19:31.641Z,16.95
2023-04-23T02:24:33.887Z,25.58
2023-04-23T02:29:36.731Z,21.35
2023-04-23T02:34:38.340Z,21.38
2023-04-23T02:39:39.902Z,22.83
2023-04-23T02:44:41.531Z,29.67
2023-04-23T02:49:43.078Z,20.83
2023-04-23T02:54:44.409Z,20.58
2023-04-23T02:59:46.240Z,19.83
2023-04-23T03:04:47.598Z,22.25
2023-04-23T03:09:48.978Z,25.63
2023-04-23T03:14:50.349Z,25.05
2023-04-23T03:19:51.943Z,23.08
2023-04-23T03:24:53.279Z,23.40
2023-04-23T03:29:54.637Z,23.52
2023-04-23T03:34:56.004Z,21.08
2023-04-23T03:39:57.339Z,19.17
2023-04-23T03:44:59.272Z,20.30
2023-04-23T03:50:00.593Z,21.05
2023-04-23T03:55:02.733Z,17.70
2023-04-23T04:00:08.096Z,16.98
2023-04-23T04:05:11.349Z,20.05
2023-04-23T04:10:13.087Z,21.08
2023-04-23T04:15:16.848Z,16.42
2023-04-23T04:20:18.295Z,20.45
2023-04-23T04:25:22.132Z,16.85
2023-04-23T04:30:24.555Z,13.77
2023-04-23T04:35:26.256Z,19.10
2023-04-23T04:40:28.556Z,21.10
2023-04-23T04:45:29.887Z,17.20
2023-04-23T04:50:31.358Z,17.08
2023-04-23T04:55:32.687Z,15.02
2023-04-23T05:00:34.356Z,15.50
2023-04-23T05:05:35.754Z,16.88
2023-04-23T05:10:37.552Z,14.38
2023-04-23T05:15:39.074Z,17.13
2023-04-23T05:20:41.068Z,12.95
2023-04-23T05:25:42.446Z,14.25
2023-04-23T05:30:43.867Z,14.57
2023-04-23T05:35:45.240Z,12.75
2023-04-23T05:40:46.806Z,13.38
2023-04-23T05:45:48.172Z,13.40
2023-04-23T05:50:49.532Z,12.95
2023-04-23T05:55:50.903Z,11.85
2023-04-23T06:00:53.248Z,11.52
2023-04-23T06:05:54.692Z,11.40
2023-04-23T06:10:56.228Z,12.73
2023-04-23T06:15:58.443Z,9.90
2023-04-23T06:21:04.157Z,9.98
2023-04-23T06:26:05.680Z,7.65
2023-04-23T06:31:07.917Z,8.85
2023-04-23T06:36:12.045Z,13.15
2023-04-23T06:41:13.672Z,9.63
2023-04-23T06:46:15.537Z,5.50
2023-04-23T06:51:17.224Z,8.10
2023-04-23T06:56:18.617Z,9.52
2023-04-23T07:01:20.220Z,8.68
2023-04-23T07:06:21.774Z,7.15
2023-04-23T07:11:23.823Z,6.38
2023-04-23T07:16:25.805Z,11.13
2023-04-23T07:21:28.548Z,6.38
2023-04-23T07:26:29.940Z,6.35
2023-04-23T07:31:31.569Z,5.65
2023-04-23T07:36:33.479Z,5.10
2023-04-23T07:41:35.637Z,4.40
2023-04-23T07:46:37.186Z,5.47
2023-04-23T07:51:38.714Z,4.80
2023-04-23T07:56:42.047Z,3.70
2023-04-23T08:01:44.795Z,4.28
2023-04-23T08:06:46.299Z,2.65
2023-04-23T08:11:48.233Z,3.47
2023-04-23T08:16:49.720Z,3.60
2023-04-23T08:21:52.388Z,4.65
2023-04-23T08:26:53.751Z,5.05
2023-04-23T08:31:55.185Z,4.00
2023-04-23T08:36:56.613Z,4.72
2023-04-23T08:42:04.750Z,3.45
2023-04-23T08:47:08.135Z,4.40
2023-04-23T08:52:19.725Z,4.93
2023-04-23T08:57:22.074Z,5.25
2023-04-23T09:02:24.284Z,5.25
2023-04-23T09:07:25.864Z,4.35
2023-04-23T09:12:27.897Z,7.25
2023-04-23T09:17:30.644Z,5.15
2023-04-23T09:22:47.377Z,6.05
2023-04-23T09:27:51.892Z,4.78
2023-04-23T09:32:53.851Z,4.35
2023-04-23T09:37:55.409Z,2.33
2023-04-23T09:42:56.776Z,2.55
2023-04-23T09:47:58.853Z,3.63
2023-04-23T09:53:00.742Z,3.13
2023-04-23T09:58:04.459Z,1.52
2023-04-23T10:03:08.688Z,2.08
2023-04-23T10:08:12.123Z,2.33
2023-04-23T10:13:14.473Z,1.58
2023-04-23T10:18:16.326Z,1.92
2023-04-23T10:23:20.997Z,3.38
2023-04-23T10:28:28.979Z,0.95
2023-04-23T10:33:37.665Z,2.30
2023-04-23T10:38:56.863Z,4.05
2023-04-23T10:43:59.506Z,2.78
2023-04-23T10:49:08.639Z,2.35
2023-04-23T10:54:11.163Z,3.65
2023-04-23T10:59:21.958Z,5.03
2023-04-23T11:04:29.183Z,2.25
2023-04-23T11:09:39.489Z,2.20
2023-04-23T11:14:48.430Z,1.48
2023-04-23T11:20:23.686Z,2.50
2023-04-23T11:25:30.381Z,2.28
2023-04-23T11:30:32.075Z,3.15
2023-04-23T11:35:40.440Z,2.13
2023-04-23T11:40:42.783Z,1.85
2023-04-23T11:45:44.464Z,3.03
2023-04-23T11:50:46.584Z,1.77
2023-04-23T11:55:49.230Z,1.67
2023-04-23T12:00:58.129Z,1.80
2023-04-23T12:05:59.778Z,1.92
2023-04-23T12:11:02.580Z,3.80
2023-04-23T12:16:05.182Z,2.13
2023-04-23T12:21:08.260Z,2.08
2023-04-23T12:26:15.104Z,1.05
2023-04-23T12:31:24.492Z,1.65
2023-04-23T12:36:29.471Z,1.23
2023-04-23T12:41:32.318Z,1.85
2023-04-23T12:46:34.916Z,0.88
2023-04-23T12:51:36.361Z,0.90
2023-04-23T12:56:37.730Z,1.83
2023-04-23T13:01:39.284Z,1.10
2023-04-23T13:06:41.527Z,1.77
2023-04-23T13:11:42.901Z,1.70
2023-04-23T13:16:44.543Z,0.70
2023-04-23T13:21:46.020Z,1.05
2023-04-23T13:26:47.388Z,1.10
2023-04-23T13:31:48.768Z,1.67
2023-04-23T13:36:50.183Z,0.63
2023-04-23T13:42:06.219Z,3.60
2023-04-23T13:47:10.777Z,1.35
2023-04-23T13:52:12.134Z,4.05
2023-04-23T13:57:13.573Z,1.00
2023-04-23T14:02:14.983Z,1.10
2023-04-23T14:07:16.377Z,1.02
2023-04-23T14:12:18.599Z,0.73
2023-04-23T14:17:19.946Z,1.23
2023-04-23T14:22:21.328Z,1.30
2023-04-23T14:27:22.792Z,0.80
2023-04-23T14:32:24.150Z,2.80
2023-04-23T14:37:25.543Z,1.67
2023-04-23T14:42:27.350Z,1.92
2023-04-23T14:47:28.752Z,1.63
2023-04-23T14:52:31.462Z,2.28
2023-04-23T14:57:32.763Z,1.42
2023-04-23T15:02:34.932Z,1.10
2023-04-23T15:07:37.344Z,0.85
2023-04-23T15:12:47.979Z,0.65
2023-04-23T15:17:49.657Z,1.38
2023-04-23T15:22:52.103Z,1.15
2023-04-23T15:27:57.721Z,0.88
2023-04-23T15:32:59.199Z,2.17
2023-04-23T15:38:01.009Z,1.20
2023-04-23T15:43:03.390Z,0.63
2023-04-23T15:48:05.153Z,2.42
2023-04-23T15:53:06.781Z,0.50
2023-04-23T15:58:08.307Z,1.23
2023-04-23T16:03:09.798Z,0.70
2023-04-23T16:08:11.828Z,1.92
2023-04-23T16:13:13.284Z,1.67
2023-04-23T16:18:14.715Z,1.38
2023-04-23T16:23:16.266Z,0.75
2023-04-23T16:28:17.704Z,0.52
2023-04-23T16:33:19.026Z,1.10
2023-04-23T16:38:20.353Z,1.00
2023-04-23T16:43:21.749Z,1.85
2023-04-23T16:48:23.101Z,2.25
2023-04-23T16:53:24.540Z,2.47
2023-04-23T16:58:25.983Z,4.10
2023-04-23T17:03:27.515Z,0.98
2023-04-23T17:08:29.036Z,1.38
2023-04-23T17:13:30.501Z,2.00
2023-04-23T17:18:31.852Z,1.83
2023-04-23T17:23:33.433Z,1.70
2023-04-23T17:28:34.816Z,2.25
2023-04-23T17:33:36.281Z,1.25
2023-04-23T17:38:38.159Z,2.08
2023-04-23T17:43:39.533Z,2.15
2023-04-23T17:48:41.109Z,2.28
2023-04-23T17:53:42.608Z,2.50
2023-04-23T17:58:44.223Z,2.25
2023-04-23T18:03:45.700Z,2.35
2023-04-23T18:08:47.165Z,4.72
2023-04-23T18:13:53.401Z,3.40
2023-04-23T18:18:54.732Z,4.10
2023-04-23T18:23:56.167Z,3.45
2023-04-23T18:28:57.508Z,4.25
2023-04-23T18:34:02.150Z,2.67
2023-04-23T18:39:04.019Z,4.40
2023-04-23T18:44:05.552Z,4.85
2023-04-23T18:49:29.834Z,2.42
2023-04-23T18:54:31.406Z,5.57
2023-04-23T18:59:35.756Z,5.97
2023-04-23T19:04:37.837Z,3.40
2023-04-23T19:09:39.695Z,1.30
2023-04-23T19:14:41.300Z,1.20
2023-04-23T19:19:42.893Z,2.03
2023-04-23T19:24:44.362Z,3.20
2023-04-23T19:29:46.412Z,0.90
2023-04-23T19:34:48.062Z,2.13
2023-04-23T19:39:50.047Z,2.67
2023-04-23T19:44:51.362Z,1.65
2023-04-23T19:49:52.814Z,1.23
2023-04-23T19:54:54.191Z,2.20
2023-04-23T19:59:55.626Z,2.55
2023-04-23T20:04:56.948Z,2.28
2023-04-23T20:09:58.252Z,1.52
2023-04-23T20:14:59.579Z,1.23
2023-04-23T20:20:02.668Z,4.00
2023-04-23T20:25:05.211Z,2.38
2023-04-23T20:30:10.390Z,5.30
2023-04-23T20:35:11.729Z,2.13
2023-04-23T20:40:14.584Z,1.67
2023-04-23T20:45:16.391Z,2.83
2023-04-23T20:50:17.738Z,3.40
2023-04-23T20:55:19.246Z,1.88
2023-04-23T21:00:22.262Z,2.22
2023-04-23T21:05:23.635Z,2.95
2023-04-23T21:10:25.011Z,2.70
2023-04-23T21:15:27.087Z,3.53
2023-04-23T21:20:28.686Z,1.73
2023-04-23T21:25:33.448Z,6.63
2023-04-23T21:30:55.128Z,3.80
2023-04-23T21:35:56.559Z,1.95
2023-04-23T21:40:57.911Z,4.57
2023-04-23T21:45:59.537Z,3.95
2023-04-23T21:51:00.852Z,1.38
2023-04-23T21:56:02.221Z,1.08
2023-04-23T22:01:03.950Z,0.75
2023-04-23T22:06:06.486Z,0.90
2023-04-23T22:11:08.286Z,2.63
2023-04-23T22:16:24.586Z,1.48
2023-04-23T22:21:29.326Z,2.70
2023-04-23T22:26:30.745Z,1.33
2023-04-23T22:31:32.097Z,2.13
2023-04-23T22:36:34.461Z,0.75
2023-04-23T22:41:38.652Z,1.17
2023-04-23T22:46:40.402Z,1.15
2023-04-23T22:51:41.862Z,1.55
2023-04-23T22:56:43.535Z,0.68
2023-04-23T23:01:44.962Z,0.95
2023-04-23T23:06:46.441Z,0.30
2023-04-23T23:11:47.789Z,1.35
2023-04-23T23:16:49.138Z,1.05
2023-04-23T23:21:50.580Z,1.65
2023-04-23T23:26:51.894Z,0.57
2023-04-23T23:31:53.256Z,0.57
2023-04-23T23:36:54.694Z,1.20
2023-04-23T23:41:57.738Z,0.50
2023-04-23T23:47:01.370Z,1.08
2023-04-23T23:52:03.755Z,1.05
2023-04-23T23:57:05.151Z,0.38
